map of LFRL home
LFRL - Airport
Location
City:  Lanveoc, Bretagne, France
Name:Poulmic
ICAO:LFRL

Details
Type:Airport (Aerodrome, Airfield)
Use:Military
Latitude:4816'57"N (48.282531)
Longitude:426'37"W (-4.443691)
Elevation:287 ft (87 m)
Variation:1.27W (WMM2015v2 magnetic declination)
0.18 annual change
Runways:1
Longest:3635 × 131 ft (1108 × 40 m)

Time
Time Zone:UTC+1 (DST+2)
Local Time:

Weather
METAR:LFRL 041400Z AUTO 16005KT 130V200 9999 BKN006 OVC010 11/10 Q1018 TEMPO 0500 -RADZ FG VV///
TAF:LFRL 041100Z 0412/0512 13006KT 9999 OVC008 PROB30
TEMPO 0412/0415 0500 -RADZ FG VV///
BECMG 0421/0423 VRB03KT 4000 BR OVC003 PROB40
TEMPO 0421/0512 3000 -RADZ OVC003 PROB40
TEMPO 0421/0512 0500 FG VV///
BECMG 0506/0508 21012KT

Related Locations
Nearby:
Farthest:NZTI: 12139 mi / 19537 km
Taieri, OTA, NZ

Find:

   beyond  
but within

Other Information
Maps:
NOTAMs:
Links:
Sources:

  
  • flag of France
  • flag of Bretagne
  

Sectional Chart

Flight Planning
at skyvector.com

Satellite Image

Google Maps Satellite view

 

Copyright © 2004-2019 Karl L. Swartz. All rights reserved.
The Great Circle Mapper name and logo are trademarks of the Great Circle Mapper.
All other trademarks mentioned herein belong to their respective owners.
Please see credits for attibutions and further copyright information.

  Follow gcmap on Facebook Follow gcmap on Twitter GCmap on LinkedIn

hCard Microformat

Geo Microformat